NKS1054 KFLL-KMCO
Flight info
| Callsign | NKS1054 |
|---|---|
| Flight time | 0h 32m |
| Altitude | 20000 |
| Route | FRSBE2 WAPOM MUNGI1 |
| Aircraft | A21N/M-SDE2E3FGHIRWXY/LB1 |
Departure
| Time | 2026-05-03 23:54 |
|---|---|
| Airport | Fort Lauderdale Hollywood International Airport (KFLL) |
Arrival
| Time | 2026-05-04 00:26 |
|---|---|
| Airport | Orlando International Airport (KMCO) |
| Time | Latitude | Longitude | Altitude | Speed | Heading |
|---|---|---|---|---|---|
| 2026-05-03 22:47 | 26.06908 | -80.14582 | 23 ft | 0 kts | 34° |
| 2026-05-03 23:04 | 26.06893 | -80.14593 | 30 ft | 4 kts | 33° |
| 2026-05-03 23:05 | 26.06871 | -80.14608 | 21 ft | 4 kts | 24° |
| 2026-05-03 23:05 | 26.06847 | -80.14615 | 23 ft | 4 kts | 339° |
| 2026-05-03 23:05 | 26.06839 | -80.14611 | 23 ft | 0 kts | 314° |
| 2026-05-03 23:09 | 26.06840 | -80.14612 | 20 ft | 1 kts | 314° |
| 2026-05-03 23:09 | 26.06855 | -80.14629 | 21 ft | 5 kts | 314° |
| 2026-05-03 23:10 | 26.06889 | -80.14667 | 21 ft | 9 kts | 315° |
| 2026-05-03 23:10 | 26.06934 | -80.14718 | 22 ft | 10 kts | 309° |
| 2026-05-03 23:10 | 26.06931 | -80.14787 | 22 ft | 10 kts | 236° |
| 2026-05-03 23:10 | 26.06908 | -80.14859 | 23 ft | 11 kts | 271° |
| 2026-05-03 23:11 | 26.06911 | -80.14943 | 24 ft | 11 kts | 271° |
| 2026-05-03 23:11 | 26.06912 | -80.15030 | 26 ft | 12 kts | 270° |
| 2026-05-03 23:11 | 26.06912 | -80.15082 | 27 ft | 9 kts | 266° |
| 2026-05-03 23:11 | 26.06845 | -80.15131 | 26 ft | 11 kts | 181° |
| 2026-05-03 23:12 | 26.06757 | -80.15131 | 26 ft | 14 kts | 180° |
| 2026-05-03 23:12 | 26.06696 | -80.15178 | 28 ft | 11 kts | 260° |
| 2026-05-03 23:12 | 26.06695 | -80.15248 | 29 ft | 9 kts | 271° |
| 2026-05-03 23:12 | 26.06695 | -80.15299 | 29 ft | 6 kts | 270° |
| 2026-05-03 23:13 | 26.06696 | -80.15307 | 29 ft | 0 kts | 270° |
| 2026-05-03 23:14 | 26.06696 | -80.15314 | 29 ft | 3 kts | 270° |
| 2026-05-03 23:14 | 26.06696 | -80.15340 | 29 ft | 1 kts | 270° |
| 2026-05-03 23:14 | 26.06696 | -80.15363 | 29 ft | 4 kts | 270° |
| 2026-05-03 23:15 | 26.06696 | -80.15407 | 29 ft | 7 kts | 270° |
| 2026-05-03 23:15 | 26.06697 | -80.15468 | 28 ft | 8 kts | 271° |
| 2026-05-03 23:15 | 26.06697 | -80.15485 | 28 ft | 0 kts | 270° |
| 2026-05-03 23:36 | 26.06697 | -80.15498 | 28 ft | 0 kts | 270° |
| 2026-05-03 23:37 | 26.06697 | -80.15500 | 28 ft | 1 kts | 270° |
| 2026-05-03 23:37 | 26.06698 | -80.15526 | 28 ft | 2 kts | 270° |
| 2026-05-03 23:37 | 26.06698 | -80.15528 | 28 ft | 0 kts | 270° |
| 2026-05-03 23:46 | 26.06698 | -80.15529 | 28 ft | 1 kts | 270° |
| 2026-05-03 23:46 | 26.06698 | -80.15572 | 27 ft | 10 kts | 270° |
| 2026-05-03 23:47 | 26.06698 | -80.15615 | 27 ft | 1 kts | 270° |
| 2026-05-03 23:47 | 26.06698 | -80.15642 | 26 ft | 5 kts | 270° |
| 2026-05-03 23:47 | 26.06698 | -80.15699 | 28 ft | 9 kts | 270° |
| 2026-05-03 23:47 | 26.06698 | -80.15745 | 28 ft | 0 kts | 270° |
| 2026-05-03 23:51 | 26.06698 | -80.15746 | 28 ft | 0 kts | 270° |
| 2026-05-03 23:51 | 26.06698 | -80.15760 | 30 ft | 4 kts | 270° |
| 2026-05-03 23:51 | 26.06685 | -80.15805 | 28 ft | 8 kts | 230° |
| 2026-05-03 23:52 | 26.06679 | -80.15812 | 26 ft | 0 kts | 217° |
| 2026-05-03 23:52 | 26.06675 | -80.15815 | 25 ft | 3 kts | 211° |
| 2026-05-03 23:52 | 26.06639 | -80.15822 | 23 ft | 8 kts | 179° |
| 2026-05-03 23:53 | 26.06591 | -80.15782 | 24 ft | 9 kts | 105° |
| 2026-05-03 23:53 | 26.06588 | -80.15740 | 25 ft | 0 kts | 90° |
| 2026-05-03 23:53 | 26.06588 | -80.15728 | 25 ft | 11 kts | 90° |
| 2026-05-03 23:53 | 26.06588 | -80.15463 | 28 ft | 64 kts | 90° |
| 2026-05-03 23:54 | 26.06583 | -80.14693 | 22 ft | 136 kts | 90° |
| 2026-05-03 23:54 | 26.06565 | -80.13434 | 214 ft | 176 kts | 92° |
| 2026-05-03 23:54 | 26.06744 | -80.12116 | 889 ft | 171 kts | 69° |
| 2026-05-03 23:54 | 26.07234 | -80.10968 | 1576 ft | 166 kts | 59° |
| 2026-05-03 23:55 | 26.07798 | -80.09783 | 1864 ft | 186 kts | 63° |
| 2026-05-03 23:55 | 26.08376 | -80.08398 | 2078 ft | 209 kts | 60° |
| 2026-05-03 23:55 | 26.09341 | -80.07092 | 2288 ft | 231 kts | 32° |
| 2026-05-03 23:55 | 26.10807 | -80.06293 | 2580 ft | 251 kts | 20° |
| 2026-05-03 23:56 | 26.12499 | -80.05633 | 3090 ft | 262 kts | 17° |
| 2026-05-03 23:56 | 26.14267 | -80.05009 | 3734 ft | 267 kts | 11° |
| 2026-05-03 23:56 | 26.16114 | -80.04909 | 4408 ft | 268 kts | 347° |
| 2026-05-03 23:56 | 26.17311 | -80.05236 | 4865 ft | 268 kts | 340° |
| 2026-05-03 23:57 | 26.19087 | -80.05906 | 5569 ft | 270 kts | 337° |
| 2026-05-03 23:57 | 26.20855 | -80.06672 | 6248 ft | 271 kts | 329° |
| 2026-05-03 23:57 | 26.22661 | -80.08381 | 7501 ft | 248 kts | 300° |
| 2026-05-03 23:57 | 26.23440 | -80.10063 | 8323 ft | 243 kts | 290° |
| 2026-05-03 23:58 | 26.23867 | -80.11240 | 8818 ft | 244 kts | 288° |
| 2026-05-03 23:58 | 26.24476 | -80.13006 | 9553 ft | 244 kts | 288° |
| 2026-05-03 23:58 | 26.25088 | -80.14773 | 10283 ft | 245 kts | 289° |
| 2026-05-03 23:58 | 26.25829 | -80.16479 | 10932 ft | 249 kts | 296° |
| 2026-05-03 23:59 | 26.26733 | -80.18150 | 11567 ft | 253 kts | 298° |
| 2026-05-03 23:59 | 26.27679 | -80.19815 | 12218 ft | 256 kts | 298° |
| 2026-05-03 23:59 | 26.28640 | -80.21496 | 12864 ft | 258 kts | 298° |
| 2026-05-03 23:59 | 26.29607 | -80.23191 | 13483 ft | 261 kts | 298° |
| 2026-05-04 00:00 | 26.30595 | -80.24932 | 13792 ft | 277 kts | 298° |
| 2026-05-04 00:00 | 26.31658 | -80.26808 | 14013 ft | 295 kts | 298° |
| 2026-05-04 00:00 | 26.32785 | -80.28798 | 14245 ft | 312 kts | 298° |
| 2026-05-04 00:00 | 26.33973 | -80.30894 | 14473 ft | 328 kts | 298° |
| 2026-05-04 00:01 | 26.35217 | -80.33088 | 14694 ft | 343 kts | 298° |
| 2026-05-04 00:01 | 26.36515 | -80.35376 | 14959 ft | 355 kts | 298° |
| 2026-05-04 00:01 | 26.37849 | -80.37726 | 15390 ft | 360 kts | 298° |
| 2026-05-04 00:01 | 26.39196 | -80.40101 | 15917 ft | 363 kts | 298° |
| 2026-05-04 00:02 | 26.40553 | -80.42494 | 16432 ft | 365 kts | 298° |
| 2026-05-04 00:02 | 26.41910 | -80.44891 | 16927 ft | 367 kts | 298° |
| 2026-05-04 00:02 | 26.43280 | -80.47314 | 17396 ft | 370 kts | 297° |
| 2026-05-04 00:02 | 26.44658 | -80.49752 | 17851 ft | 372 kts | 297° |
| 2026-05-04 00:03 | 26.46043 | -80.52204 | 18282 ft | 374 kts | 297° |
| 2026-05-04 00:03 | 26.47597 | -80.54565 | 18655 ft | 382 kts | 307° |
| 2026-05-04 00:03 | 26.49670 | -80.56482 | 19031 ft | 395 kts | 323° |
| 2026-05-04 00:03 | 26.52236 | -80.57722 | 19363 ft | 408 kts | 335° |
| 2026-05-04 00:04 | 26.54974 | -80.58628 | 19689 ft | 413 kts | 337° |
| 2026-05-04 00:04 | 26.57760 | -80.59484 | 19966 ft | 415 kts | 337° |
| 2026-05-04 00:04 | 26.60538 | -80.60339 | 20024 ft | 415 kts | 337° |
| 2026-05-04 00:04 | 26.63324 | -80.61207 | 20030 ft | 416 kts | 337° |
| 2026-05-04 00:05 | 26.66113 | -80.62083 | 20031 ft | 416 kts | 337° |
| 2026-05-04 00:05 | 26.68904 | -80.62964 | 20034 ft | 416 kts | 336° |
| 2026-05-04 00:05 | 26.71651 | -80.63835 | 20035 ft | 416 kts | 336° |
| 2026-05-04 00:05 | 26.74436 | -80.64720 | 20036 ft | 416 kts | 336° |
| 2026-05-04 00:06 | 26.77188 | -80.65596 | 20032 ft | 416 kts | 336° |
| 2026-05-04 00:06 | 26.79977 | -80.66484 | 20032 ft | 416 kts | 336° |
| 2026-05-04 00:06 | 26.82728 | -80.67361 | 20036 ft | 416 kts | 336° |
| 2026-05-04 00:06 | 26.85303 | -80.68183 | 20034 ft | 416 kts | 336° |
| 2026-05-04 00:07 | 26.88149 | -80.69091 | 20051 ft | 416 kts | 336° |
| 2026-05-04 00:07 | 26.90931 | -80.69992 | 20041 ft | 415 kts | 335° |
| 2026-05-04 00:07 | 26.93672 | -80.70986 | 20035 ft | 414 kts | 334° |
| 2026-05-04 00:07 | 26.96406 | -80.72018 | 20045 ft | 413 kts | 333° |
| 2026-05-04 00:08 | 26.99135 | -80.73055 | 20043 ft | 413 kts | 333° |
| 2026-05-04 00:08 | 27.01866 | -80.74092 | 20048 ft | 413 kts | 333° |
| 2026-05-04 00:08 | 27.04595 | -80.75127 | 20045 ft | 413 kts | 333° |
| 2026-05-04 00:08 | 27.07280 | -80.76145 | 20046 ft | 413 kts | 333° |
| 2026-05-04 00:09 | 27.09996 | -80.77174 | 20055 ft | 413 kts | 333° |
| 2026-05-04 00:09 | 27.12729 | -80.78210 | 20054 ft | 413 kts | 333° |
| 2026-05-04 00:09 | 27.15468 | -80.79249 | 20047 ft | 413 kts | 333° |
| 2026-05-04 00:09 | 27.18190 | -80.80281 | 20069 ft | 413 kts | 333° |
| 2026-05-04 00:10 | 27.20913 | -80.81314 | 20053 ft | 412 kts | 333° |
| 2026-05-04 00:10 | 27.23631 | -80.82346 | 20055 ft | 412 kts | 333° |
| 2026-05-04 00:10 | 27.26351 | -80.83380 | 20054 ft | 412 kts | 333° |
| 2026-05-04 00:10 | 27.29059 | -80.84409 | 20055 ft | 412 kts | 333° |
| 2026-05-04 00:11 | 27.31780 | -80.85432 | 20053 ft | 413 kts | 335° |
| 2026-05-04 00:11 | 27.34561 | -80.86324 | 20055 ft | 416 kts | 337° |
| 2026-05-04 00:11 | 27.37329 | -80.87148 | 20054 ft | 416 kts | 338° |
| 2026-05-04 00:11 | 27.40124 | -80.87970 | 20053 ft | 416 kts | 338° |
| 2026-05-04 00:12 | 27.42892 | -80.88783 | 19871 ft | 406 kts | 337° |
| 2026-05-04 00:12 | 27.45613 | -80.89586 | 19266 ft | 404 kts | 337° |
| 2026-05-04 00:12 | 27.48326 | -80.90393 | 18648 ft | 402 kts | 338° |
| 2026-05-04 00:12 | 27.51028 | -80.91196 | 18091 ft | 398 kts | 338° |
| 2026-05-04 00:13 | 27.53693 | -80.91989 | 17513 ft | 393 kts | 338° |
| 2026-05-04 00:13 | 27.56293 | -80.92764 | 16884 ft | 391 kts | 338° |
| 2026-05-04 00:13 | 27.58916 | -80.93547 | 16297 ft | 387 kts | 339° |
| 2026-05-04 00:13 | 27.61509 | -80.94320 | 15714 ft | 383 kts | 339° |
| 2026-05-04 00:14 | 27.64080 | -80.95088 | 15130 ft | 380 kts | 339° |
| 2026-05-04 00:14 | 27.66612 | -80.95845 | 14560 ft | 377 kts | 340° |
| 2026-05-04 00:14 | 27.69136 | -80.96599 | 14003 ft | 375 kts | 340° |
| 2026-05-04 00:14 | 27.71639 | -80.97347 | 13444 ft | 371 kts | 340° |
| 2026-05-04 00:15 | 27.74125 | -80.98090 | 12858 ft | 367 kts | 340° |
| 2026-05-04 00:15 | 27.76576 | -80.98823 | 12294 ft | 363 kts | 340° |
| 2026-05-04 00:15 | 27.79010 | -80.99552 | 11720 ft | 359 kts | 340° |
| 2026-05-04 00:15 | 27.81416 | -81.00272 | 11218 ft | 354 kts | 340° |
| 2026-05-04 00:16 | 27.83795 | -81.00985 | 10692 ft | 350 kts | 341° |
| 2026-05-04 00:16 | 27.86094 | -81.01671 | 10563 ft | 334 kts | 340° |
| 2026-05-04 00:16 | 27.88256 | -81.02315 | 10431 ft | 319 kts | 340° |
| 2026-05-04 00:16 | 27.90365 | -81.02945 | 10282 ft | 305 kts | 340° |
| 2026-05-04 00:17 | 27.92381 | -81.03551 | 10061 ft | 295 kts | 340° |
| 2026-05-04 00:17 | 27.94326 | -81.04247 | 9609 ft | 291 kts | 336° |
| 2026-05-04 00:17 | 27.96223 | -81.05034 | 9107 ft | 290 kts | 335° |
| 2026-05-04 00:17 | 27.98113 | -81.05840 | 8610 ft | 290 kts | 336° |
| 2026-05-04 00:18 | 27.99988 | -81.06639 | 8188 ft | 287 kts | 336° |
| 2026-05-04 00:18 | 28.01856 | -81.07432 | 7801 ft | 283 kts | 337° |
| 2026-05-04 00:18 | 28.03644 | -81.08191 | 7471 ft | 278 kts | 337° |
| 2026-05-04 00:18 | 28.05373 | -81.08923 | 7275 ft | 268 kts | 337° |
| 2026-05-04 00:19 | 28.07122 | -81.09662 | 7135 ft | 258 kts | 338° |
| 2026-05-04 00:19 | 28.08821 | -81.10379 | 7061 ft | 261 kts | 338° |
| 2026-05-04 00:19 | 28.10527 | -81.11095 | 6955 ft | 262 kts | 338° |
| 2026-05-04 00:19 | 28.12239 | -81.11812 | 6620 ft | 262 kts | 339° |
| 2026-05-04 00:20 | 28.13942 | -81.12525 | 6224 ft | 261 kts | 339° |
| 2026-05-04 00:20 | 28.15578 | -81.13376 | 5926 ft | 258 kts | 324° |
| 2026-05-04 00:20 | 28.16692 | -81.14915 | 5617 ft | 254 kts | 289° |
| 2026-05-04 00:20 | 28.17023 | -81.16877 | 5322 ft | 255 kts | 279° |
| 2026-05-04 00:21 | 28.17566 | -81.18791 | 5107 ft | 256 kts | 292° |
| 2026-05-04 00:21 | 28.18285 | -81.20640 | 4840 ft | 257 kts | 295° |
| 2026-05-04 00:21 | 28.19049 | -81.22476 | 4567 ft | 256 kts | 295° |
| 2026-05-04 00:21 | 28.19806 | -81.24270 | 4308 ft | 256 kts | 296° |
| 2026-05-04 00:22 | 28.20600 | -81.26104 | 4039 ft | 256 kts | 301° |
| 2026-05-04 00:22 | 28.21813 | -81.27482 | 3791 ft | 249 kts | 335° |
| 2026-05-04 00:22 | 28.23440 | -81.28102 | 3523 ft | 246 kts | 356° |
| 2026-05-04 00:22 | 28.25142 | -81.28155 | 3276 ft | 245 kts | 5° |
| 2026-05-04 00:23 | 28.26847 | -81.28090 | 3020 ft | 243 kts | 3° |
| 2026-05-04 00:23 | 28.28501 | -81.28091 | 2736 ft | 234 kts | 2° |
| 2026-05-04 00:23 | 28.30105 | -81.28120 | 2391 ft | 226 kts | 3° |
| 2026-05-04 00:23 | 28.31604 | -81.28135 | 2095 ft | 211 kts | 4° |
| 2026-05-04 00:24 | 28.33017 | -81.28146 | 1853 ft | 206 kts | 5° |
| 2026-05-04 00:24 | 28.34408 | -81.28160 | 1566 ft | 194 kts | 4° |
| 2026-05-04 00:24 | 28.35698 | -81.28174 | 1334 ft | 175 kts | 4° |
| 2026-05-04 00:24 | 28.36854 | -81.28185 | 1087 ft | 157 kts | 5° |
| 2026-05-04 00:25 | 28.37883 | -81.28191 | 916 ft | 141 kts | 2° |
| 2026-05-04 00:25 | 28.38850 | -81.28210 | 723 ft | 138 kts | 2° |
| 2026-05-04 00:25 | 28.39824 | -81.28212 | 537 ft | 141 kts | 2° |
| 2026-05-04 00:25 | 28.40812 | -81.28232 | 361 ft | 143 kts | 5° |
| 2026-05-04 00:26 | 28.41780 | -81.28242 | 168 ft | 139 kts | 2° |
| 2026-05-04 00:26 | 28.42736 | -81.28242 | 109 ft | 136 kts | 2° |
| 2026-05-04 00:26 | 28.43612 | -81.28245 | 106 ft | 95 kts | 358° |
| 2026-05-04 00:26 | 28.44002 | -81.28254 | 110 ft | 37 kts | 360° |
| 2026-05-04 00:27 | 28.44220 | -81.28267 | 110 ft | 20 kts | 330° |
| 2026-05-04 00:27 | 28.44246 | -81.28321 | 109 ft | 0 kts | 275° |
| 2026-05-04 00:28 | 28.44242 | -81.28356 | 108 ft | 9 kts | 247° |
| 2026-05-04 00:28 | 28.44160 | -81.28381 | 109 ft | 16 kts | 179° |
| 2026-05-04 00:29 | 28.44052 | -81.28378 | 112 ft | 14 kts | 179° |
| 2026-05-04 00:29 | 28.43949 | -81.28377 | 111 ft | 16 kts | 179° |
| 2026-05-04 00:29 | 28.43874 | -81.28456 | 110 ft | 18 kts | 267° |
| 2026-05-04 00:29 | 28.43874 | -81.28569 | 110 ft | 15 kts | 270° |
| 2026-05-04 00:30 | 28.43873 | -81.28696 | 110 ft | 17 kts | 269° |
| 2026-05-04 00:30 | 28.43871 | -81.28842 | 110 ft | 19 kts | 269° |
| 2026-05-04 00:30 | 28.43870 | -81.29004 | 109 ft | 22 kts | 269° |
| 2026-05-04 00:30 | 28.43869 | -81.29173 | 104 ft | 17 kts | 269° |
| 2026-05-04 00:31 | 28.43804 | -81.29264 | 104 ft | 18 kts | 181° |
| 2026-05-04 00:31 | 28.43695 | -81.29262 | 105 ft | 15 kts | 179° |
| 2026-05-04 00:31 | 28.43583 | -81.29266 | 106 ft | 17 kts | 200° |
| 2026-05-04 00:31 | 28.43551 | -81.29379 | 109 ft | 16 kts | 270° |
| 2026-05-04 00:32 | 28.43551 | -81.29516 | 109 ft | 19 kts | 270° |
| 2026-05-04 00:32 | 28.43549 | -81.29674 | 106 ft | 17 kts | 270° |
| 2026-05-04 00:32 | 28.43536 | -81.29787 | 107 ft | 14 kts | 229° |
| 2026-05-04 00:32 | 28.43436 | -81.29805 | 107 ft | 16 kts | 179° |
| 2026-05-04 00:33 | 28.43314 | -81.29802 | 106 ft | 19 kts | 179° |
| 2026-05-04 00:33 | 28.43029 | -81.29799 | 106 ft | 18 kts | 179° |
| 2026-05-04 00:33 | 28.42897 | -81.29798 | 106 ft | 20 kts | 179° |
| 2026-05-04 00:34 | 28.42750 | -81.29796 | 106 ft | 21 kts | 180° |
| 2026-05-04 00:34 | 28.42624 | -81.29794 | 106 ft | 19 kts | 179° |
| 2026-05-04 00:34 | 28.42487 | -81.29793 | 106 ft | 21 kts | 179° |
| 2026-05-04 00:34 | 28.42374 | -81.29831 | 105 ft | 18 kts | 235° |
| 2026-05-04 00:35 | 28.42361 | -81.29965 | 107 ft | 15 kts | 269° |
| 2026-05-04 00:35 | 28.42360 | -81.30044 | 107 ft | 9 kts | 269° |
| 2026-05-04 00:35 | 28.42367 | -81.30111 | 107 ft | 9 kts | 296° |
| 2026-05-04 00:35 | 28.42418 | -81.30137 | 105 ft | 9 kts | 352° |
| 2026-05-04 00:36 | 28.42469 | -81.30167 | 106 ft | 8 kts | 310° |
| 2026-05-04 00:36 | 28.42496 | -81.30223 | 106 ft | 8 kts | 292° |
| 2026-05-04 00:36 | 28.42518 | -81.30280 | 106 ft | 8 kts | 300° |
| 2026-05-04 00:36 | 28.42537 | -81.30297 | 106 ft | 1 kts | 8° |
| 2026-05-04 00:37 | 28.42546 | -81.30294 | 106 ft | 1 kts | 17° |
| 2026-05-04 00:37 | 28.42555 | -81.30291 | 106 ft | 1 kts | 16° |
| 2026-05-04 00:37 | 28.42566 | -81.30288 | 106 ft | 2 kts | 16° |
| 2026-05-04 00:37 | 28.42592 | -81.30280 | 106 ft | 5 kts | 11° |
| 2026-05-04 00:38 | 28.42633 | -81.30277 | 106 ft | 0 kts | 1° |
| 2026-05-04 00:38 | 28.42642 | -81.30277 | 106 ft | 3 kts | 1° |
| 2026-05-04 00:38 | 28.42648 | -81.30276 | 106 ft | 0 kts | 1° |